createdAt,value
2022-11-05T00:04:40.666Z,2.63
2022-11-05T00:10:06.716Z,2.70
2022-11-05T00:15:48.711Z,2.33
2022-11-05T00:21:25.708Z,3.13
2022-11-05T00:26:48.800Z,2.70
2022-11-05T00:32:13.225Z,3.33
2022-11-05T00:37:36.726Z,3.00
2022-11-05T00:43:17.270Z,3.50
2022-11-05T00:48:59.123Z,3.23
2022-11-05T00:54:22.274Z,2.63
2022-11-05T00:59:45.374Z,2.37
2022-11-05T01:05:10.282Z,2.40
2022-11-05T01:10:33.823Z,3.73
2022-11-05T01:15:57.580Z,2.53
2022-11-05T01:21:22.033Z,2.27
2022-11-05T01:26:45.164Z,2.50
2022-11-05T01:32:08.530Z,3.53
2022-11-05T01:37:32.954Z,2.53
2022-11-05T01:42:56.107Z,2.10
2022-11-05T01:48:21.455Z,2.00
2022-11-05T01:53:48.171Z,2.00
2022-11-05T01:59:13.300Z,1.73
2022-11-05T02:04:39.654Z,1.93
2022-11-05T02:10:06.148Z,2.00
2022-11-05T02:15:36.902Z,2.03
2022-11-05T02:21:20.327Z,2.47
2022-11-05T02:27:19.090Z,2.43
2022-11-05T02:33:01.381Z,2.20
2022-11-05T02:38:33.426Z,2.30
2022-11-05T02:44:06.256Z,2.17
2022-11-05T02:49:40.152Z,2.40
2022-11-05T02:55:08.185Z,2.50
2022-11-05T03:00:50.476Z,2.70
2022-11-05T03:06:48.448Z,2.57
2022-11-05T03:12:21.444Z,2.43
2022-11-05T03:17:53.979Z,2.27
2022-11-05T03:23:25.278Z,2.27
2022-11-05T03:28:51.940Z,1.70
2022-11-05T03:34:15.657Z,1.83
2022-11-05T03:39:43.068Z,2.20
2022-11-05T03:45:09.640Z,2.40
2022-11-05T03:50:41.245Z,2.50
2022-11-05T03:56:08.349Z,2.50
2022-11-05T04:01:31.861Z,2.57
2022-11-05T04:07:12.656Z,2.73
2022-11-05T04:12:54.802Z,2.43
2022-11-05T04:18:18.009Z,2.23
2022-11-05T04:23:59.230Z,2.60
2022-11-05T04:29:41.289Z,3.07
2022-11-05T04:35:04.564Z,2.80
2022-11-05T04:40:27.714Z,3.63
2022-11-05T04:45:52.221Z,3.60
2022-11-05T04:51:15.402Z,4.20
2022-11-05T04:56:40.201Z,3.60
2022-11-05T05:02:04.734Z,3.27
2022-11-05T05:07:28.502Z,2.80
2022-11-05T05:12:51.669Z,2.23
2022-11-05T05:18:16.264Z,2.27
2022-11-05T05:23:39.389Z,2.17
2022-11-05T05:29:02.572Z,2.50
2022-11-05T05:34:27.037Z,2.50
2022-11-05T05:39:50.228Z,1.90
2022-11-05T05:45:13.454Z,2.67
2022-11-05T05:50:37.948Z,2.47
2022-11-05T05:56:03.767Z,2.40
2022-11-05T06:01:26.891Z,2.97
2022-11-05T06:06:51.574Z,2.80
2022-11-05T06:12:14.848Z,2.73
2022-11-05T06:17:38.010Z,2.60
2022-11-05T06:23:02.611Z,3.53
2022-11-05T06:28:25.775Z,3.20
2022-11-05T06:33:48.987Z,2.90
2022-11-05T06:39:13.898Z,3.13
2022-11-05T06:44:37.163Z,2.53
2022-11-05T06:50:00.304Z,2.97
2022-11-05T06:55:25.206Z,2.43
2022-11-05T07:00:48.528Z,2.47
2022-11-05T07:06:11.934Z,3.07
2022-11-05T07:11:36.568Z,3.13
2022-11-05T07:16:59.716Z,2.67
2022-11-05T07:22:22.787Z,3.90
2022-11-05T07:27:47.301Z,2.80
2022-11-05T07:33:10.880Z,3.50
2022-11-05T07:38:34.174Z,3.30
2022-11-05T07:43:58.691Z,3.43
2022-11-05T07:49:23.757Z,3.97
2022-11-05T07:54:46.924Z,3.67
2022-11-05T08:00:16.366Z,3.97
2022-11-05T08:05:41.295Z,3.13
2022-11-05T08:11:05.163Z,2.63
2022-11-05T08:16:29.605Z,2.27
2022-11-05T08:21:52.737Z,3.43
2022-11-05T08:27:16.228Z,3.83
2022-11-05T08:32:40.874Z,4.47
2022-11-05T08:38:06.432Z,3.60
2022-11-05T08:43:31.474Z,3.97
2022-11-05T08:48:55.942Z,3.33
2022-11-05T08:54:19.087Z,3.67
2022-11-05T08:59:42.228Z,3.37
2022-11-05T09:05:07.754Z,4.27
2022-11-05T09:10:30.894Z,3.30
2022-11-05T09:15:53.996Z,3.47
2022-11-05T09:21:19.071Z,4.23
2022-11-05T09:26:42.259Z,2.73
2022-11-05T09:32:05.627Z,2.77
2022-11-05T09:37:30.659Z,3.87
2022-11-05T09:42:55.024Z,3.87
2022-11-05T09:48:19.277Z,4.27
2022-11-05T09:53:45.133Z,5.23
2022-11-05T09:59:17.197Z,5.03
2022-11-05T10:04:40.949Z,6.13
2022-11-05T10:10:07.534Z,4.87
2022-11-05T10:15:32.585Z,5.20
2022-11-05T10:20:55.664Z,5.03
2022-11-05T10:26:23.037Z,4.97
2022-11-05T10:31:46.144Z,4.57
2022-11-05T10:37:09.972Z,3.93
2022-11-05T10:42:49.777Z,4.07
2022-11-05T10:48:29.397Z,3.23
2022-11-05T10:54:00.515Z,3.83
2022-11-05T10:59:27.998Z,4.43
2022-11-05T11:04:53.172Z,4.67
2022-11-05T11:10:20.746Z,4.77
2022-11-05T11:15:45.265Z,4.80
2022-11-05T11:21:14.394Z,4.77
2022-11-05T11:26:38.802Z,3.70
2022-11-05T11:32:03.440Z,5.30
2022-11-05T11:37:28.987Z,4.40
2022-11-05T11:42:54.069Z,4.63
2022-11-05T11:48:20.629Z,5.27
2022-11-05T11:53:43.752Z,4.97
2022-11-05T11:59:16.305Z,3.60
2022-11-05T12:04:58.283Z,3.80
2022-11-05T12:10:41.614Z,4.30
2022-11-05T12:16:09.565Z,6.07
2022-11-05T12:21:52.515Z,4.60
2022-11-05T12:27:24.642Z,6.90
2022-11-05T12:33:12.549Z,2.90
2022-11-05T12:38:52.747Z,4.17
2022-11-05T12:44:24.669Z,2.70
2022-11-05T12:49:59.968Z,2.73
2022-11-05T12:55:27.194Z,2.43
2022-11-05T13:00:56.362Z,1.33
2022-11-05T13:06:23.910Z,1.40
2022-11-05T13:11:52.531Z,1.23
2022-11-05T13:17:17.643Z,1.83
2022-11-05T13:22:44.052Z,1.17
2022-11-05T13:28:19.252Z,1.77
2022-11-05T13:33:43.952Z,1.80
2022-11-05T13:39:14.532Z,2.27
2022-11-05T13:45:02.470Z,1.80
2022-11-05T13:50:59.699Z,1.60
2022-11-05T13:56:41.222Z,1.33
2022-11-05T14:02:11.611Z,1.30
2022-11-05T14:07:36.439Z,1.87
2022-11-05T14:13:04.333Z,1.43
2022-11-05T14:18:43.649Z,1.33
2022-11-05T14:24:25.668Z,2.03
2022-11-05T14:29:49.503Z,1.73
2022-11-05T14:35:36.700Z,2.60
2022-11-05T14:41:02.527Z,2.33
2022-11-05T14:46:25.843Z,1.47
2022-11-05T14:51:52.062Z,2.77
2022-11-05T14:57:16.710Z,1.60
2022-11-05T15:02:39.895Z,1.83
2022-11-05T15:08:29.321Z,2.20
2022-11-05T15:14:02.783Z,1.73
2022-11-05T15:19:30.793Z,2.27
2022-11-05T15:24:55.959Z,2.40
2022-11-05T15:30:21.594Z,2.60
2022-11-05T15:35:44.670Z,2.47
2022-11-05T15:41:16.151Z,2.40
2022-11-05T15:46:42.292Z,2.50
2022-11-05T15:52:05.819Z,2.20
2022-11-05T15:57:30.875Z,2.17
2022-11-05T16:02:56.438Z,2.80
2022-11-05T16:08:20.979Z,2.40
2022-11-05T16:13:48.274Z,2.97
2022-11-05T16:19:40.100Z,2.87
2022-11-05T16:25:27.118Z,2.57
2022-11-05T16:30:56.290Z,2.10
2022-11-05T16:36:19.708Z,2.47
2022-11-05T16:41:43.725Z,2.00
2022-11-05T16:47:09.535Z,3.40
2022-11-05T16:52:32.613Z,3.20
2022-11-05T16:57:56.454Z,3.57
2022-11-05T17:03:20.906Z,3.60
2022-11-05T17:08:45.158Z,3.33
2022-11-05T17:14:09.705Z,3.00
2022-11-05T17:19:34.489Z,4.63
2022-11-05T17:24:57.558Z,3.33
2022-11-05T17:30:20.920Z,3.97
2022-11-05T17:35:45.353Z,4.07
2022-11-05T17:41:12.431Z,3.70
2022-11-05T17:46:35.553Z,4.53
2022-11-05T17:51:59.981Z,4.97
2022-11-05T17:57:23.086Z,3.67
2022-11-05T18:02:48.451Z,3.30
2022-11-05T18:08:13.271Z,4.90
2022-11-05T18:13:36.373Z,4.10
2022-11-05T18:18:59.846Z,3.63
2022-11-05T18:24:24.303Z,3.60
2022-11-05T18:29:47.834Z,4.27
2022-11-05T18:35:11.050Z,4.10
2022-11-05T18:40:35.563Z,4.83
2022-11-05T18:45:58.666Z,4.40
2022-11-05T18:51:21.784Z,5.03
2022-11-05T18:56:46.310Z,4.47
2022-11-05T19:02:11.912Z,4.17
2022-11-05T19:07:37.094Z,5.03
2022-11-05T19:13:01.542Z,4.67
2022-11-05T19:18:24.637Z,3.90
2022-11-05T19:23:47.908Z,3.50
2022-11-05T19:29:12.623Z,3.80
2022-11-05T19:34:36.143Z,5.00
2022-11-05T19:39:59.261Z,3.37
2022-11-05T19:45:43.517Z,3.63
2022-11-05T19:51:07.524Z,3.97
2022-11-05T19:56:32.053Z,3.43
2022-11-05T20:01:56.600Z,2.60
2022-11-05T20:07:20.380Z,3.53
2022-11-05T20:12:43.438Z,2.67
2022-11-05T20:18:11.125Z,2.50
2022-11-05T20:23:35.947Z,3.43
2022-11-05T20:28:59.058Z,3.33
2022-11-05T20:34:23.512Z,2.37
2022-11-05T20:39:46.626Z,2.30
2022-11-05T20:45:10.532Z,3.67
2022-11-05T20:50:34.994Z,3.37
2022-11-05T20:55:58.091Z,1.97
2022-11-05T21:01:21.538Z,2.40
2022-11-05T21:06:45.981Z,2.20
2022-11-05T21:12:12.088Z,3.50
2022-11-05T21:17:35.208Z,2.50
2022-11-05T21:22:59.598Z,2.50
2022-11-05T21:28:22.883Z,2.30
2022-11-05T21:33:48.715Z,2.43
2022-11-05T21:39:15.398Z,2.97
2022-11-05T21:44:38.493Z,1.90
2022-11-05T21:50:01.548Z,2.40
2022-11-05T21:55:43.560Z,3.17
2022-11-05T22:01:06.671Z,1.70
2022-11-05T22:06:29.855Z,2.00
2022-11-05T22:11:54.369Z,2.30
2022-11-05T22:17:17.494Z,2.20
2022-11-05T22:22:40.589Z,2.57
2022-11-05T22:28:05.538Z,2.80
2022-11-05T22:33:28.629Z,2.63
2022-11-05T22:38:51.696Z,2.57
2022-11-05T22:44:16.702Z,2.53
2022-11-05T22:49:39.788Z,3.20
2022-11-05T22:55:05.108Z,2.20
2022-11-05T23:00:37.215Z,2.73
2022-11-05T23:06:02.182Z,2.70
2022-11-05T23:11:38.662Z,3.07
2022-11-05T23:17:20.769Z,2.53
2022-11-05T23:22:57.737Z,2.83
2022-11-05T23:28:21.248Z,3.63
2022-11-05T23:33:45.747Z,3.03
2022-11-05T23:39:08.849Z,3.97
2022-11-05T23:44:49.690Z,2.67
2022-11-05T23:50:14.130Z,2.20
2022-11-05T23:55:37.444Z,3.50
